createdAt,value
2022-10-25T00:06:23.251Z,99576.33
2022-10-25T00:15:57.451Z,99594.85
2022-10-25T00:25:33.265Z,99596.25
2022-10-25T00:35:07.531Z,99590.53
2022-10-25T00:44:41.822Z,99588.05
2022-10-25T00:54:15.393Z,99594.88
2022-10-25T01:03:49.547Z,99596.78
2022-10-25T01:13:23.490Z,99612.19
2022-10-25T01:22:57.378Z,99617.12
2022-10-25T01:32:29.607Z,99618.11
2022-10-25T01:42:03.507Z,99613.36
2022-10-25T01:51:37.879Z,99609.80
2022-10-25T02:01:13.818Z,99614.95
2022-10-25T02:10:46.373Z,99613.33
2022-10-25T02:20:20.848Z,99612.44
2022-10-25T02:29:55.587Z,99612.20
2022-10-25T02:39:31.233Z,99611.00
2022-10-25T02:49:05.471Z,99612.82
2022-10-25T02:58:37.779Z,99606.58
2022-10-25T03:08:12.200Z,99613.14
2022-10-25T03:17:46.732Z,99625.60
2022-10-25T03:27:22.706Z,99627.51
2022-10-25T03:36:55.581Z,99628.30
2022-10-25T03:46:33.530Z,99629.61
2022-10-25T03:56:06.300Z,99626.88
2022-10-25T04:05:40.522Z,99629.84
2022-10-25T04:15:14.317Z,99628.58
2022-10-25T04:24:46.781Z,99642.98
2022-10-25T04:34:21.173Z,99651.02
2022-10-25T04:43:57.048Z,99647.56
2022-10-25T04:53:31.378Z,99647.59
2022-10-25T05:03:04.295Z,99653.30
2022-10-25T05:12:38.564Z,99669.67
2022-10-25T05:22:12.714Z,99671.96
2022-10-25T05:31:48.191Z,99671.91
2022-10-25T05:41:22.679Z,99677.41
2022-10-25T05:50:59.405Z,99688.16
2022-10-25T06:00:31.861Z,99691.16
2022-10-25T06:10:08.308Z,99706.38
2022-10-25T06:19:39.962Z,99728.19
2022-10-25T06:29:12.415Z,99746.58
2022-10-25T06:38:46.812Z,99757.85
2022-10-25T06:48:20.850Z,99762.64
2022-10-25T06:57:57.099Z,99775.69
2022-10-25T07:07:31.298Z,99778.72
2022-10-25T07:17:04.457Z,99778.31
2022-10-25T07:26:39.516Z,99774.55
2022-10-25T07:36:14.351Z,99784.37
2022-10-25T07:45:49.265Z,99805.99
2022-10-25T07:55:23.845Z,99809.04
2022-10-25T08:04:58.586Z,99805.33
2022-10-25T08:14:36.409Z,99818.09
2022-10-25T08:24:09.554Z,99824.31
2022-10-25T08:33:43.773Z,99827.97
2022-10-25T08:43:16.696Z,99837.06
2022-10-25T08:44:20.904Z,99831.61
2022-10-25T09:03:28.757Z,99846.94
2022-10-25T09:13:06.883Z,99849.43
2022-10-25T09:22:38.839Z,99852.47
2022-10-25T09:32:15.279Z,99853.75
2022-10-25T09:33:17.654Z,99852.51
2022-10-25T09:34:20.153Z,99859.55
2022-10-25T09:35:27.614Z,99852.27
2022-10-25T09:36:31.307Z,99850.60
2022-10-25T09:37:35.274Z,99847.21
2022-10-25T09:38:37.652Z,99848.20
2022-10-25T09:39:40.179Z,99842.95
2022-10-25T09:40:47.475Z,99852.84
2022-10-25T09:50:16.863Z,99860.59
2022-10-25T09:51:20.716Z,99859.66
2022-10-25T09:52:23.120Z,99856.85
2022-10-25T09:53:27.186Z,99853.58
2022-10-25T09:54:29.563Z,99865.45
2022-10-25T09:55:34.695Z,99858.41
2022-10-25T09:56:37.205Z,99856.98
2022-10-25T09:57:39.723Z,99856.79
2022-10-25T09:58:42.135Z,99855.88
2022-10-25T09:59:46.229Z,99862.75
2022-10-25T10:00:50.177Z,99861.24
2022-10-25T10:01:52.586Z,99862.53
2022-10-25T10:02:56.816Z,99867.03
2022-10-25T10:03:59.939Z,99864.66
2022-10-25T10:13:33.577Z,99857.75
2022-10-25T10:14:37.622Z,99858.83
2022-10-25T10:15:39.970Z,99866.73
2022-10-25T10:16:44.085Z,99863.16
2022-10-25T10:17:46.681Z,99864.63
2022-10-25T10:18:48.932Z,99866.77
2022-10-25T10:19:51.422Z,99865.91
2022-10-25T10:20:53.872Z,99871.66
2022-10-25T10:21:56.325Z,99868.26
2022-10-25T10:22:58.790Z,99866.44
2022-10-25T10:24:01.314Z,99872.11
2022-10-25T10:25:03.827Z,99861.61
2022-10-25T10:26:06.239Z,99865.58
2022-10-25T10:27:08.716Z,99867.63
2022-10-25T10:28:11.194Z,99869.31
2022-10-25T10:29:16.612Z,99863.36
2022-10-25T10:30:17.692Z,99860.59
2022-10-25T10:31:20.154Z,99860.83
2022-10-25T10:32:22.673Z,99866.01
2022-10-25T10:33:25.124Z,99868.52
2022-10-25T10:34:29.215Z,99864.49
2022-10-25T10:35:33.210Z,99868.13
2022-10-25T10:36:37.172Z,99866.64
2022-10-25T10:37:41.206Z,99866.81
2022-10-25T10:38:49.128Z,99860.92
2022-10-25T10:39:51.288Z,99868.94
2022-10-25T10:40:55.313Z,99869.39
2022-10-25T10:41:57.651Z,99862.89
2022-10-25T10:43:00.156Z,99865.97
2022-10-25T10:44:02.762Z,99863.86
2022-10-25T10:45:06.828Z,99862.34
2022-10-25T10:46:10.776Z,99861.89
2022-10-25T10:47:13.198Z,99858.59
2022-10-25T10:48:15.699Z,99858.47
2022-10-25T10:49:18.112Z,99851.61
2022-10-25T10:50:22.195Z,99859.83
2022-10-25T10:51:42.824Z,99857.51
2022-10-25T11:00:57.072Z,99849.17
2022-10-25T11:01:59.720Z,99855.45
2022-10-25T11:03:02.216Z,99857.80
2022-10-25T11:04:06.338Z,99853.05
2022-10-25T11:05:08.698Z,99852.84
2022-10-25T11:06:11.163Z,99858.95
2022-10-25T11:07:15.314Z,99855.69
2022-10-25T11:08:17.697Z,99855.11
2022-10-25T11:09:20.168Z,99859.27
2022-10-25T11:10:24.369Z,99862.20
2022-10-25T11:11:28.281Z,99855.52
2022-10-25T11:12:30.639Z,99862.86
2022-10-25T11:13:33.168Z,99859.59
2022-10-25T11:14:37.227Z,99861.11
2022-10-25T11:15:39.568Z,99868.57
2022-10-25T11:16:42.075Z,99860.75
2022-10-25T11:17:46.486Z,99863.08
2022-10-25T11:18:48.521Z,99866.98
2022-10-25T11:19:53.614Z,99866.94
2022-10-25T11:20:55.928Z,99868.14
2022-10-25T11:21:58.415Z,99870.05
2022-10-25T11:23:02.641Z,99870.91
2022-10-25T11:24:03.368Z,99877.39
2022-10-25T11:25:07.481Z,99869.23
2022-10-25T11:26:10.822Z,99874.16
2022-10-25T11:27:13.202Z,99873.56
2022-10-25T11:28:17.276Z,99871.95
2022-10-25T11:29:21.231Z,99868.49
2022-10-25T11:30:23.646Z,99873.85
2022-10-25T11:31:26.114Z,99876.03
2022-10-25T11:32:28.600Z,99871.52
2022-10-25T11:33:31.013Z,99867.45
2022-10-25T11:34:33.518Z,99872.53
2022-10-25T11:35:39.804Z,99868.30
2022-10-25T11:36:42.071Z,99874.24
2022-10-25T11:37:47.815Z,99870.99
2022-10-25T11:38:49.744Z,99869.53
2022-10-25T11:39:52.250Z,99871.41
2022-10-25T11:40:54.758Z,99869.39
2022-10-25T11:41:57.366Z,99866.16
2022-10-25T11:43:01.420Z,99872.38
2022-10-25T11:44:03.753Z,99870.09
2022-10-25T11:45:07.801Z,99873.23
2022-10-25T11:46:10.161Z,99872.83
2022-10-25T11:47:14.291Z,99868.22
2022-10-25T11:48:16.649Z,99871.88
2022-10-25T11:49:19.139Z,99872.30
2022-10-25T11:50:21.624Z,99872.13
2022-10-25T11:51:24.099Z,99872.88
2022-10-25T11:52:26.539Z,99869.53
2022-10-25T11:53:30.648Z,99861.73
2022-10-25T11:54:33.062Z,99862.13
2022-10-25T11:55:35.432Z,99862.61
2022-10-25T11:56:39.573Z,99865.23
2022-10-25T11:57:41.892Z,99865.95
2022-10-25T11:58:44.395Z,99863.95
2022-10-25T11:59:46.873Z,99862.25
2022-10-25T12:00:49.291Z,99865.38
2022-10-25T12:01:51.887Z,99859.92
2022-10-25T12:02:54.288Z,99862.27
2022-10-25T12:03:56.733Z,99861.45
2022-10-25T12:04:59.235Z,99861.38
2022-10-25T12:06:01.702Z,99858.47
2022-10-25T12:07:04.219Z,99859.46
2022-10-25T12:08:08.325Z,99855.11
2022-10-25T12:09:12.406Z,99853.75
2022-10-25T12:10:14.744Z,99856.86
2022-10-25T12:11:18.984Z,99859.05
2022-10-25T12:12:22.865Z,99855.05
2022-10-25T12:13:25.197Z,99858.70
2022-10-25T12:14:27.695Z,99856.56
2022-10-25T12:15:30.152Z,99851.05
2022-10-25T12:16:32.651Z,99854.25
2022-10-25T12:17:35.148Z,99854.45
2022-10-25T12:18:37.665Z,99853.33
2022-10-25T12:19:40.222Z,99855.44
2022-10-25T12:20:42.679Z,99852.74
2022-10-25T12:21:45.213Z,99856.09
2022-10-25T12:22:49.658Z,99857.61
2022-10-25T12:23:53.320Z,99854.72
2022-10-25T12:24:58.172Z,99855.42
2022-10-25T12:26:00.451Z,99854.67
2022-10-25T12:27:04.538Z,99854.25
2022-10-25T12:28:06.918Z,99850.16
2022-10-25T12:29:09.443Z,99851.02
2022-10-25T12:30:11.902Z,99847.39
2022-10-25T12:31:14.379Z,99850.88
2022-10-25T12:32:16.849Z,99854.00
2022-10-25T12:33:19.404Z,99852.23
2022-10-25T12:34:23.541Z,99852.92
2022-10-25T12:35:25.933Z,99850.39
2022-10-25T12:36:31.312Z,99851.37
2022-10-25T12:37:33.537Z,99849.67
2022-10-25T12:38:36.015Z,99849.20
2022-10-25T12:39:38.513Z,99849.07
2022-10-25T12:40:41.404Z,99845.35
2022-10-25T12:41:45.072Z,99850.56
2022-10-25T12:42:47.641Z,99848.63
2022-10-25T12:43:49.927Z,99849.63
2022-10-25T12:44:52.312Z,99848.20
2022-10-25T12:45:56.046Z,99844.78
2022-10-25T12:46:57.265Z,99843.30
2022-10-25T12:47:59.671Z,99846.19
2022-10-25T12:49:04.813Z,99846.26
2022-10-25T12:50:08.759Z,99841.91
2022-10-25T12:51:12.058Z,99841.66
2022-10-25T13:00:43.280Z,99848.59
2022-10-25T13:01:47.533Z,99851.11
2022-10-25T13:02:51.393Z,99849.58
2022-10-25T13:03:55.419Z,99849.03
2022-10-25T13:04:57.756Z,99851.66
2022-10-25T13:06:00.276Z,99846.89
2022-10-25T13:07:04.366Z,99841.89
2022-10-25T13:08:06.731Z,99841.22
2022-10-25T13:09:10.801Z,99839.27
2022-10-25T13:10:14.807Z,99836.80
2022-10-25T13:11:17.193Z,99837.39
2022-10-25T13:12:19.609Z,99828.83
2022-10-25T13:13:23.674Z,99833.95
2022-10-25T13:14:27.723Z,99833.46
2022-10-25T13:15:30.080Z,99835.39
2022-10-25T13:16:32.548Z,99833.31
2022-10-25T13:17:36.623Z,99834.50
2022-10-25T13:18:38.977Z,99834.26
2022-10-25T13:19:53.892Z,99838.11
2022-10-25T13:20:45.522Z,99830.09
2022-10-25T13:21:48.743Z,99833.55
2022-10-25T13:22:52.405Z,99828.00
2022-10-25T13:23:54.508Z,99831.14
2022-10-25T13:24:56.774Z,99827.69
2022-10-25T13:26:00.815Z,99823.41
2022-10-25T13:27:05.032Z,99828.22
2022-10-25T13:28:07.391Z,99826.78
2022-10-25T13:29:09.915Z,99821.45
2022-10-25T13:30:12.359Z,99821.49
2022-10-25T13:31:14.824Z,99820.27
2022-10-25T13:32:18.977Z,99822.20
2022-10-25T13:33:22.875Z,99819.48
2022-10-25T13:34:25.199Z,99817.41
2022-10-25T13:35:27.637Z,99817.72
2022-10-25T13:36:31.732Z,99815.81
2022-10-25T13:37:35.711Z,99815.63
2022-10-25T13:38:39.520Z,99815.31
2022-10-25T13:39:40.502Z,99815.74
2022-10-25T13:40:44.594Z,99818.98
2022-10-25T13:41:46.979Z,99813.16
2022-10-25T13:42:49.680Z,99808.51
2022-10-25T13:43:51.884Z,99817.19
2022-10-25T13:44:54.360Z,99814.16
2022-10-25T13:45:58.422Z,99814.08
2022-10-25T13:47:00.782Z,99813.95
2022-10-25T13:48:03.220Z,99813.17
2022-10-25T13:49:07.307Z,99813.78
2022-10-25T13:50:09.679Z,99811.16
2022-10-25T13:51:12.138Z,99808.77
2022-10-25T13:52:14.703Z,99813.39
2022-10-25T13:53:17.080Z,99812.92
2022-10-25T13:54:21.133Z,99817.79
2022-10-25T13:55:23.483Z,99817.73
2022-10-25T13:56:27.559Z,99813.06
2022-10-25T13:57:31.462Z,99820.70
2022-10-25T13:58:33.773Z,99810.86
2022-10-25T13:59:37.898Z,99818.12
2022-10-25T14:00:41.858Z,99821.03
2022-10-25T14:10:14.006Z,99807.27
2022-10-25T14:11:16.385Z,99808.91
2022-10-25T14:12:20.571Z,99812.63
2022-10-25T14:13:22.829Z,99811.48
2022-10-25T14:14:26.908Z,99811.48
2022-10-25T14:15:29.276Z,99813.77
2022-10-25T14:16:31.806Z,99811.30
2022-10-25T14:17:34.297Z,99808.08
2022-10-25T14:18:36.800Z,99811.14
2022-10-25T14:19:40.842Z,99808.66
2022-10-25T14:20:45.788Z,99809.80
2022-10-25T14:21:49.735Z,99808.69
2022-10-25T14:22:53.715Z,99804.44
2022-10-25T14:23:56.057Z,99805.71
2022-10-25T14:25:00.188Z,99805.22
2022-10-25T14:26:02.560Z,99804.51
2022-10-25T14:27:04.993Z,99806.02
2022-10-25T14:28:09.144Z,99805.43
2022-10-25T14:29:13.074Z,99808.41
2022-10-25T14:31:19.482Z,99811.00
2022-10-25T14:32:24.801Z,99809.22
2022-10-25T14:33:28.617Z,99812.80
2022-10-25T14:34:32.513Z,99810.81
2022-10-25T14:35:36.517Z,99808.16
2022-10-25T14:36:40.463Z,99810.92
2022-10-25T14:37:42.788Z,99812.67
2022-10-25T14:38:45.291Z,99807.67
2022-10-25T14:39:49.391Z,99807.30
2022-10-25T14:40:53.357Z,99810.19
2022-10-25T14:41:57.334Z,99810.67
2022-10-25T14:42:59.773Z,99803.04
2022-10-25T14:44:02.244Z,99805.03
2022-10-25T14:45:04.708Z,99801.19
2022-10-25T14:46:08.724Z,99805.53
2022-10-25T14:47:12.636Z,99799.39
2022-10-25T14:48:14.947Z,99806.93
2022-10-25T14:49:17.427Z,99803.14
2022-10-25T14:50:21.488Z,99803.63
2022-10-25T14:51:25.471Z,99803.30
2022-10-25T14:52:29.430Z,99806.31
2022-10-25T14:53:31.824Z,99806.16
2022-10-25T14:54:34.262Z,99804.16
2022-10-25T14:55:36.764Z,99801.27
2022-10-25T14:56:39.257Z,99801.94
2022-10-25T14:57:43.356Z,99804.38
2022-10-25T14:58:45.695Z,99804.39
2022-10-25T14:59:48.265Z,99803.84
2022-10-25T15:00:52.302Z,99798.06
2022-10-25T15:01:56.242Z,99796.89
2022-10-25T15:02:58.525Z,99797.05
2022-10-25T15:04:02.625Z,99803.25
2022-10-25T15:05:06.559Z,99798.44
2022-10-25T15:06:08.917Z,99802.42
2022-10-25T15:15:43.137Z,99798.89
2022-10-25T15:16:45.630Z,99797.66
2022-10-25T15:17:48.051Z,99796.71
2022-10-25T15:18:50.570Z,99795.98
2022-10-25T15:19:54.722Z,99799.53
2022-10-25T15:20:59.810Z,99795.83
2022-10-25T15:22:01.963Z,99796.23
2022-10-25T15:23:06.165Z,99793.70
2022-10-25T15:24:10.083Z,99791.11
2022-10-25T15:25:12.429Z,99788.45
2022-10-25T15:26:14.919Z,99790.24
2022-10-25T15:27:17.371Z,99798.30
2022-10-25T15:28:19.884Z,99792.93
2022-10-25T15:29:22.385Z,99798.13
2022-10-25T15:30:24.892Z,99799.80
2022-10-25T15:31:27.329Z,99801.50
2022-10-25T15:32:31.388Z,99799.48
2022-10-25T15:33:33.749Z,99802.12
2022-10-25T15:34:36.242Z,99797.34
2022-10-25T15:35:38.676Z,99796.42
2022-10-25T15:36:41.092Z,99798.73
2022-10-25T15:37:43.575Z,99801.04
2022-10-25T15:39:07.028Z,99797.62
2022-10-25T15:39:50.199Z,99794.94
2022-10-25T15:40:52.496Z,99793.58
2022-10-25T15:41:55.042Z,99791.84
2022-10-25T15:42:57.466Z,99784.36
2022-10-25T15:44:01.574Z,99785.11
2022-10-25T15:45:05.540Z,99789.89
2022-10-25T15:46:07.902Z,99788.80
2022-10-25T15:47:11.981Z,99794.36
2022-10-25T15:48:14.259Z,99793.19
2022-10-25T15:49:18.411Z,99788.83
2022-10-25T15:50:20.844Z,99789.44
2022-10-25T15:51:24.247Z,99791.85
2022-10-25T15:52:25.723Z,99786.50
2022-10-25T16:01:57.917Z,99775.38
2022-10-25T16:11:31.988Z,99773.39
2022-10-25T16:21:04.819Z,99767.95
2022-10-25T16:22:07.282Z,99776.13
2022-10-25T16:31:41.941Z,99779.95
2022-10-25T16:41:13.933Z,99780.95
2022-10-25T16:50:49.533Z,99764.80
2022-10-25T17:00:22.062Z,99762.67
2022-10-25T17:09:55.999Z,99761.81
2022-10-25T17:19:30.080Z,99755.98
2022-10-25T17:29:03.997Z,99747.77
2022-10-25T17:38:38.101Z,99748.00
2022-10-25T17:48:12.314Z,99745.71
2022-10-25T17:57:46.694Z,99741.78
2022-10-25T18:07:20.795Z,99735.41
2022-10-25T18:16:56.489Z,99741.54
2022-10-25T18:26:28.440Z,99749.14
2022-10-25T18:36:02.719Z,99744.76
2022-10-25T18:45:36.839Z,99739.63
2022-10-25T18:55:12.652Z,99739.17
2022-10-25T19:04:46.483Z,99733.77
2022-10-25T19:14:18.649Z,99731.27
2022-10-25T19:23:53.041Z,99730.13
2022-10-25T19:33:28.259Z,99725.80
2022-10-25T19:43:00.648Z,99729.71
2022-10-25T19:52:34.643Z,99724.36
2022-10-25T20:02:09.953Z,99721.49
2022-10-25T20:03:14.789Z,99724.34
2022-10-25T20:12:45.426Z,99717.70
2022-10-25T20:22:19.388Z,99719.03
2022-10-25T20:31:54.945Z,99715.89
2022-10-25T20:41:28.958Z,99712.56
2022-10-25T20:51:02.946Z,99705.92
2022-10-25T21:00:35.142Z,99701.33
2022-10-25T21:10:09.002Z,99695.60
2022-10-25T21:19:42.519Z,99700.47
2022-10-25T21:29:16.312Z,99685.11
2022-10-25T21:38:50.186Z,99676.11
2022-10-25T21:48:25.844Z,99677.22
2022-10-25T21:57:59.943Z,99669.63
2022-10-25T22:07:31.674Z,99665.19
2022-10-25T22:17:07.443Z,99666.51
2022-10-25T22:26:40.994Z,99665.87
2022-10-25T22:36:14.575Z,99662.67
2022-10-25T22:45:46.971Z,99650.78
2022-10-25T22:55:21.164Z,99653.44
2022-10-25T23:04:55.416Z,99642.99
2022-10-25T23:14:31.316Z,99643.51
2022-10-25T23:24:04.190Z,99633.59
2022-10-25T23:33:40.154Z,99634.34
2022-10-25T23:43:13.226Z,99634.90
2022-10-25T23:52:49.386Z,99631.09
